createdAt,value
2019-02-12T00:00:48.410Z,1011.91
2019-02-12T00:01:48.371Z,1012.03
2019-02-12T00:02:48.354Z,1012.02
2019-02-12T00:03:48.348Z,1012.04
2019-02-12T00:04:48.342Z,1012.00
2019-02-12T00:05:48.367Z,1011.93
2019-02-12T00:06:48.316Z,1012.02
2019-02-12T00:07:48.299Z,1012.07
2019-02-12T00:08:48.292Z,1012.07
2019-02-12T00:09:48.284Z,1011.99
2019-02-12T00:10:48.276Z,1012.05
2019-02-12T00:11:48.285Z,1012.03
2019-02-12T00:12:48.261Z,1012.13
2019-02-12T00:13:48.241Z,1012.16
2019-02-12T00:14:48.234Z,1012.13
2019-02-12T00:15:48.223Z,1012.22
2019-02-12T00:16:48.240Z,1012.17
2019-02-12T00:17:48.198Z,1012.23
2019-02-12T00:18:48.186Z,1012.19
2019-02-12T00:19:48.182Z,1012.20
2019-02-12T00:20:48.162Z,1012.40
2019-02-12T00:21:48.190Z,1012.23
2019-02-12T00:22:48.143Z,1012.31
2019-02-12T00:23:48.144Z,1012.30
2019-02-12T00:24:48.123Z,1012.31
2019-02-12T00:25:48.115Z,1012.38
2019-02-12T00:26:48.122Z,1012.34
2019-02-12T00:27:48.104Z,1012.37
2019-02-12T00:28:48.093Z,1012.28
2019-02-12T00:29:48.074Z,1012.28
2019-02-12T00:30:48.061Z,1012.25
2019-02-12T00:31:48.071Z,1012.35
2019-02-12T00:32:48.046Z,1012.32
2019-02-12T00:33:48.032Z,1012.21
2019-02-12T00:34:48.117Z,1012.23
2019-02-12T00:35:48.005Z,1011.60
2019-02-12T00:36:48.027Z,1012.20
2019-02-12T00:37:47.979Z,1012.16
2019-02-12T00:38:47.972Z,1012.29
2019-02-12T00:39:47.965Z,1012.32
2019-02-12T00:40:47.972Z,1012.30
2019-02-12T00:41:47.969Z,1012.13
2019-02-12T00:42:47.933Z,1012.36
2019-02-12T00:43:47.925Z,1012.32
2019-02-12T00:44:47.911Z,1012.39
2019-02-12T00:45:47.894Z,1012.28
2019-02-12T00:46:47.919Z,1012.23
2019-02-12T00:47:47.873Z,1012.28
2019-02-12T00:48:47.868Z,1012.35
2019-02-12T00:49:47.857Z,1012.34
2019-02-12T00:50:47.858Z,1012.30
2019-02-12T00:51:47.869Z,1012.26
2019-02-12T00:52:47.840Z,1012.32
2019-02-12T00:53:47.814Z,1012.07
2019-02-12T00:54:47.799Z,1012.33
2019-02-12T00:55:47.801Z,1012.32
2019-02-12T00:56:47.820Z,1012.33
2019-02-12T00:57:47.784Z,1012.34
2019-02-12T00:58:47.761Z,1012.33
2019-02-12T00:59:47.745Z,1012.34
2019-02-12T01:00:47.747Z,1012.45
2019-02-12T01:01:47.767Z,1012.43
2019-02-12T01:02:47.721Z,1012.40
2019-02-12T01:03:47.711Z,1012.45
2019-02-12T01:04:47.694Z,1012.54
2019-02-12T01:05:47.684Z,1012.51
2019-02-12T01:06:47.697Z,1012.52
2019-02-12T01:07:47.670Z,1012.45
2019-02-12T01:08:47.655Z,1012.55
2019-02-12T01:09:47.647Z,1012.58
2019-02-12T01:10:47.635Z,1012.57
2019-02-12T01:11:47.643Z,1012.50
2019-02-12T01:12:47.614Z,1012.62
2019-02-12T01:13:47.592Z,1012.54
2019-02-12T01:14:47.591Z,1012.58
2019-02-12T01:15:47.593Z,1012.61
2019-02-12T01:16:47.595Z,1012.60
2019-02-12T01:17:47.554Z,1012.54
2019-02-12T01:18:47.549Z,1012.57
2019-02-12T01:19:47.528Z,1012.61
2019-02-12T01:20:47.520Z,1012.60
2019-02-12T01:21:47.543Z,1012.63
2019-02-12T01:22:47.502Z,1012.61
2019-02-12T01:23:47.497Z,1012.62
2019-02-12T01:24:47.488Z,1012.63
2019-02-12T01:25:47.473Z,1012.64
2019-02-12T01:26:47.496Z,1012.77
2019-02-12T01:27:47.455Z,1012.69
2019-02-12T01:28:47.441Z,1012.72
2019-02-12T01:29:47.434Z,1012.68
2019-02-12T01:30:47.414Z,1012.72
2019-02-12T01:31:47.434Z,1012.59
2019-02-12T01:32:47.397Z,1012.70
2019-02-12T01:33:47.382Z,1012.62
2019-02-12T01:34:47.378Z,1012.73
2019-02-12T01:35:47.368Z,1012.67
2019-02-12T01:36:47.374Z,1012.67
2019-02-12T01:37:47.344Z,1012.70
2019-02-12T01:38:47.334Z,1012.73
2019-02-12T01:39:47.326Z,1012.67
2019-02-12T01:40:47.315Z,1012.77
2019-02-12T01:41:47.348Z,1012.74
2019-02-12T01:42:47.310Z,1012.75
2019-02-12T01:43:47.275Z,1012.77
2019-02-12T01:44:47.269Z,1012.62
2019-02-12T01:45:47.264Z,1012.72
2019-02-12T01:46:47.245Z,1012.74
2019-02-12T01:47:47.272Z,1012.74
2019-02-12T01:48:47.229Z,1012.66
2019-02-12T01:49:47.207Z,1012.76
2019-02-12T01:50:47.204Z,1012.67
2019-02-12T01:51:47.197Z,1012.80
2019-02-12T01:52:47.235Z,1012.69
2019-02-12T01:53:47.178Z,1012.68
2019-02-12T01:54:47.156Z,1012.74
2019-02-12T01:55:47.154Z,1012.77
2019-02-12T01:56:47.144Z,1012.75
2019-02-12T01:57:47.163Z,1012.70
2019-02-12T01:58:47.132Z,1012.74
2019-02-12T01:59:47.110Z,1012.78
2019-02-12T02:00:47.105Z,1012.81
2019-02-12T02:01:47.099Z,1012.85
2019-02-12T02:02:47.107Z,1012.82
2019-02-12T02:03:47.074Z,1012.82
2019-02-12T02:04:47.057Z,1012.83
2019-02-12T02:05:47.046Z,1012.85
2019-02-12T02:06:47.035Z,1012.84
2019-02-12T02:07:47.052Z,1012.91
2019-02-12T02:08:47.029Z,1012.95
2019-02-12T02:09:47.002Z,1012.86
2019-02-12T02:10:46.990Z,1012.92
2019-02-12T02:11:46.982Z,1012.93
2019-02-12T02:12:47.011Z,1012.92
2019-02-12T02:13:46.971Z,1012.99
2019-02-12T02:14:46.957Z,1013.00
2019-02-12T02:15:46.944Z,1012.89
2019-02-12T02:16:46.925Z,1012.83
2019-02-12T02:17:46.945Z,1012.95
2019-02-12T02:18:46.911Z,1012.87
2019-02-12T02:19:46.927Z,1012.91
2019-02-12T02:20:46.892Z,1012.86
2019-02-12T02:21:46.947Z,1012.93
2019-02-12T02:22:46.900Z,1012.87
2019-02-12T02:23:46.855Z,1012.84
2019-02-12T02:24:46.850Z,1012.86
2019-02-12T02:25:46.846Z,1012.95
2019-02-12T02:26:46.829Z,1012.83
2019-02-12T02:27:46.841Z,1012.83
2019-02-12T02:28:46.799Z,1012.95
2019-02-12T02:29:46.793Z,1012.90
2019-02-12T02:30:46.786Z,1012.96
2019-02-12T02:31:46.767Z,1012.97
2019-02-12T02:32:46.800Z,1012.89
2019-02-12T02:33:46.750Z,1012.93
2019-02-12T02:34:46.732Z,1012.94
2019-02-12T02:35:46.733Z,1012.84
2019-02-12T02:36:46.724Z,1012.90
2019-02-12T02:37:46.734Z,1012.89
2019-02-12T02:38:46.695Z,1012.84
2019-02-12T02:39:46.688Z,1012.81
2019-02-12T02:40:46.682Z,1012.89
2019-02-12T02:41:46.661Z,1012.88
2019-02-12T02:42:46.679Z,1012.95
2019-02-12T02:43:46.644Z,1012.90
2019-02-12T02:44:46.633Z,1012.96
2019-02-12T02:45:46.621Z,1012.98
2019-02-12T02:46:46.612Z,1012.94
2019-02-12T02:47:46.635Z,1012.91
2019-02-12T02:48:46.591Z,1012.95
2019-02-12T02:49:46.586Z,1012.89
2019-02-12T02:50:46.572Z,1013.04
2019-02-12T02:51:53.695Z,1012.98
2019-02-12T02:52:47.571Z,1013.07
2019-02-12T02:53:46.535Z,1013.01
2019-02-12T02:54:46.536Z,1013.06
2019-02-12T02:55:46.521Z,1013.16
2019-02-12T02:56:46.507Z,1013.02
2019-02-12T02:57:46.527Z,1012.99
2019-02-12T02:58:46.493Z,1013.04
2019-02-12T02:59:46.474Z,1013.12
2019-02-12T03:00:46.467Z,1013.03
2019-02-12T03:01:46.459Z,1013.10
2019-02-12T03:02:46.469Z,1013.10
2019-02-12T03:03:46.448Z,1013.09
2019-02-12T03:04:46.422Z,1013.08
2019-02-12T03:05:46.416Z,1013.19
2019-02-12T03:06:46.397Z,1013.11
2019-02-12T03:07:46.415Z,1013.22
2019-02-12T03:08:46.387Z,1013.22
2019-02-12T03:09:46.372Z,1013.09
2019-02-12T03:10:46.359Z,1013.16
2019-02-12T03:11:46.354Z,1013.17
2019-02-12T03:12:46.379Z,1013.20
2019-02-12T03:13:46.324Z,1013.21
2019-02-12T03:14:46.314Z,1013.20
2019-02-12T03:15:46.304Z,1013.17
2019-02-12T03:16:46.301Z,1013.19
2019-02-12T03:17:46.332Z,1013.24
2019-02-12T03:18:46.283Z,1013.15
2019-02-12T03:19:46.261Z,1013.28
2019-02-12T03:20:46.257Z,1013.20
2019-02-12T03:21:46.238Z,1013.35
2019-02-12T03:22:46.222Z,1013.29
2019-02-12T03:23:46.255Z,1013.27
2019-02-12T03:24:46.217Z,1013.26
2019-02-12T03:25:46.198Z,1013.20
2019-02-12T03:26:46.200Z,1013.29
2019-02-12T03:27:46.180Z,1013.18
2019-02-12T03:28:46.198Z,1013.14
2019-02-12T03:29:46.151Z,1013.12
2019-02-12T03:30:46.147Z,1013.10
2019-02-12T03:31:46.140Z,1013.15
2019-02-12T03:32:46.122Z,1013.13
2019-02-12T03:33:46.157Z,1013.10
2019-02-12T03:34:46.103Z,1013.08
2019-02-12T03:35:46.091Z,1012.99
2019-02-12T03:36:46.087Z,1013.08
2019-02-12T03:37:46.113Z,1013.01
2019-02-12T03:38:46.100Z,1013.02
2019-02-12T03:39:46.046Z,1013.01
2019-02-12T03:40:46.039Z,1013.07
2019-02-12T03:41:46.031Z,1013.05
2019-02-12T03:42:46.033Z,1013.15
2019-02-12T03:43:46.045Z,1013.12
2019-02-12T03:44:46.004Z,1013.15
2019-02-12T03:45:45.981Z,1013.05
2019-02-12T03:46:45.976Z,1013.09
2019-02-12T03:47:45.964Z,1013.15
2019-02-12T03:48:45.983Z,1013.22
2019-02-12T03:49:45.941Z,1013.20
2019-02-12T03:50:45.931Z,1013.18
2019-02-12T03:51:45.930Z,1013.14
2019-02-12T03:52:45.915Z,1013.11
2019-02-12T03:53:45.930Z,1013.14
2019-02-12T03:54:45.892Z,1012.91
2019-02-12T03:55:45.900Z,1013.12
2019-02-12T03:56:45.872Z,1013.08
2019-02-12T03:57:45.859Z,1013.10
2019-02-12T03:58:45.876Z,1013.08
2019-02-12T03:59:45.838Z,1013.09
2019-02-12T04:00:45.832Z,1013.11
2019-02-12T04:01:45.827Z,1013.13
2019-02-12T04:02:45.802Z,1013.08
2019-02-12T04:03:45.818Z,1013.06
2019-02-12T04:04:45.788Z,1013.14
2019-02-12T04:05:45.788Z,1013.21
2019-02-12T04:06:45.784Z,1013.03
2019-02-12T04:07:45.752Z,1013.17
2019-02-12T04:08:45.767Z,1013.15
2019-02-12T04:09:45.732Z,1013.21
2019-02-12T04:10:45.719Z,1013.14
2019-02-12T04:11:46.219Z,1013.25
2019-02-12T04:12:45.694Z,1013.27
2019-02-12T04:13:45.710Z,1013.28
2019-02-12T04:14:45.682Z,1013.23
2019-02-12T04:15:45.676Z,1013.28
2019-02-12T04:16:45.655Z,1013.18
2019-02-12T04:17:45.642Z,1013.16
2019-02-12T04:18:45.682Z,1013.21
2019-02-12T04:19:45.627Z,1013.15
2019-02-12T04:20:45.624Z,1013.24
2019-02-12T04:21:45.650Z,1013.25
2019-02-12T04:22:45.602Z,1013.27
2019-02-12T04:23:45.630Z,1013.30
2019-02-12T04:24:45.567Z,1013.23
2019-02-12T04:25:45.555Z,1013.38
2019-02-12T04:26:45.556Z,1013.28
2019-02-12T04:27:45.562Z,1013.24
2019-02-12T04:28:45.527Z,1013.19
2019-02-12T04:29:45.548Z,1013.32
2019-02-12T04:30:45.508Z,1013.31
2019-02-12T04:31:45.490Z,1013.29
2019-02-12T04:32:45.484Z,1013.27
2019-02-12T04:33:45.485Z,1013.27
2019-02-12T04:34:45.497Z,1013.31
2019-02-12T04:35:45.453Z,1013.31
2019-02-12T04:36:45.447Z,1013.26
2019-02-12T04:37:45.442Z,1013.21
2019-02-12T04:38:45.425Z,1013.31
2019-02-12T04:39:45.435Z,1013.24
2019-02-12T04:40:45.412Z,1013.34
2019-02-12T04:41:45.390Z,1013.36
2019-02-12T04:42:45.381Z,1013.34
2019-02-12T04:43:45.373Z,1013.37
2019-02-12T04:44:45.383Z,1013.39
2019-02-12T04:45:45.350Z,1013.36
2019-02-12T04:46:45.337Z,1013.40
2019-02-12T04:47:45.324Z,1013.41
2019-02-12T04:48:45.313Z,1013.39
2019-02-12T04:49:45.324Z,1013.40
2019-02-12T04:50:45.300Z,1013.38
2019-02-12T04:51:45.284Z,1013.31
2019-02-12T04:52:45.274Z,1013.35
2019-02-12T04:53:45.260Z,1013.37
2019-02-12T04:54:45.277Z,1013.38
2019-02-12T04:55:45.241Z,1013.38
2019-02-12T04:56:45.240Z,1013.32
2019-02-12T04:57:45.224Z,1013.45
2019-02-12T04:58:45.244Z,1013.37
2019-02-12T04:59:45.240Z,1013.45
2019-02-12T05:00:45.262Z,1013.46
2019-02-12T05:01:45.185Z,1013.43
2019-02-12T05:02:45.175Z,1013.37
2019-02-12T05:03:45.156Z,1013.37
2019-02-12T05:04:45.186Z,1013.40
2019-02-12T05:05:45.136Z,1013.38
2019-02-12T05:06:45.151Z,1013.48
2019-02-12T05:07:45.106Z,1013.41
2019-02-12T05:08:45.111Z,1013.37
2019-02-12T05:09:45.118Z,1013.45
2019-02-12T05:10:45.081Z,1013.48
2019-02-12T05:11:45.068Z,1013.43
2019-02-12T05:12:45.052Z,1013.47
2019-02-12T05:13:45.047Z,1013.47
2019-02-12T05:14:45.061Z,1013.46
2019-02-12T05:15:45.034Z,1013.33
2019-02-12T05:16:45.019Z,1013.47
2019-02-12T05:17:45.006Z,1013.44
2019-02-12T05:18:44.989Z,1013.47
2019-02-12T05:19:45.015Z,1013.49
2019-02-12T05:20:44.978Z,1013.41
2019-02-12T05:21:44.992Z,1013.46
2019-02-12T05:22:44.955Z,1013.51
2019-02-12T05:23:44.953Z,1013.52
2019-02-12T05:24:44.961Z,1013.53
2019-02-12T05:25:44.927Z,1013.56
2019-02-12T05:26:44.903Z,1013.54
2019-02-12T05:27:44.902Z,1013.54
2019-02-12T05:28:44.888Z,1013.59
2019-02-12T05:29:44.908Z,1013.56
2019-02-12T05:30:44.864Z,1013.55
2019-02-12T05:31:44.862Z,1013.64
2019-02-12T05:32:44.848Z,1013.60
2019-02-12T05:33:44.836Z,1013.65
2019-02-12T05:34:44.888Z,1013.64
2019-02-12T05:35:44.809Z,1013.60
2019-02-12T05:36:44.807Z,1013.58
2019-02-12T05:37:44.803Z,1013.59
2019-02-12T05:38:44.777Z,1013.70
2019-02-12T05:39:44.779Z,1013.70
2019-02-12T05:40:44.807Z,1013.62
2019-02-12T05:41:44.762Z,1013.62
2019-02-12T05:42:44.760Z,1013.70
2019-02-12T05:43:44.747Z,1013.69
2019-02-12T05:44:44.731Z,1013.75
2019-02-12T05:45:44.748Z,1013.66
2019-02-12T05:46:44.699Z,1013.69
2019-02-12T05:47:44.680Z,1013.77
2019-02-12T05:48:44.685Z,1013.77
2019-02-12T05:49:44.683Z,1013.79
2019-02-12T05:50:44.686Z,1013.75
2019-02-12T05:51:44.661Z,1013.77
2019-02-12T05:52:53.950Z,1013.78
2019-02-12T05:53:45.631Z,1013.83
2019-02-12T05:54:44.613Z,1013.82
2019-02-12T05:55:44.630Z,1013.83
2019-02-12T05:56:44.594Z,1013.73
2019-02-12T05:57:44.589Z,1013.79
2019-02-12T05:58:44.567Z,1013.80
2019-02-12T05:59:47.020Z,1013.78
2019-02-12T06:00:44.591Z,1013.76
2019-02-12T06:01:44.547Z,1013.80
2019-02-12T06:02:44.539Z,1013.77
2019-02-12T06:03:44.520Z,1013.86
2019-02-12T06:04:44.515Z,1013.79
2019-02-12T06:05:44.529Z,1013.73
2019-02-12T06:06:44.498Z,1013.82
2019-02-12T06:07:44.475Z,1013.79
2019-02-12T06:08:44.472Z,1013.81
2019-02-12T06:09:44.463Z,1013.83
2019-02-12T06:10:44.478Z,1013.82
2019-02-12T06:11:44.436Z,1013.83
2019-02-12T06:12:44.420Z,1013.86
2019-02-12T06:13:44.417Z,1013.86
2019-02-12T06:14:44.416Z,1013.82
2019-02-12T06:15:44.421Z,1013.80
2019-02-12T06:16:44.375Z,1013.82
2019-02-12T06:17:44.373Z,1013.86
2019-02-12T06:18:44.363Z,1013.85
2019-02-12T06:19:44.339Z,1013.80
2019-02-12T06:20:44.369Z,1013.86
2019-02-12T06:21:44.320Z,1013.81
2019-02-12T06:22:44.313Z,1013.81
2019-02-12T06:23:44.315Z,1013.78
2019-02-12T06:24:44.315Z,1013.78
2019-02-12T06:25:44.334Z,1013.88
2019-02-12T06:26:44.268Z,1013.80
2019-02-12T06:27:44.263Z,1013.84
2019-02-12T06:28:44.249Z,1013.77
2019-02-12T06:29:44.237Z,1013.93
2019-02-12T06:30:44.258Z,1013.97
2019-02-12T06:31:44.220Z,1013.97
2019-02-12T06:32:44.204Z,1013.95
2019-02-12T06:33:44.198Z,1013.93
2019-02-12T06:34:44.199Z,1013.88
2019-02-12T06:35:44.199Z,1013.89
2019-02-12T06:36:44.166Z,1013.99
2019-02-12T06:37:44.158Z,1014.05
2019-02-12T06:38:44.146Z,1014.01
2019-02-12T06:39:44.149Z,1014.03
2019-02-12T06:40:44.157Z,1014.02
2019-02-12T06:41:44.114Z,1014.07
2019-02-12T06:42:44.109Z,1014.09
2019-02-12T06:43:44.090Z,1014.06
2019-02-12T06:44:44.678Z,1014.10
2019-02-12T06:45:44.101Z,1014.08
2019-02-12T06:46:44.065Z,1014.13
2019-02-12T06:47:44.050Z,1014.14
2019-02-12T06:48:44.046Z,1014.14
2019-02-12T06:49:44.019Z,1014.24
2019-02-12T06:50:44.019Z,1014.27
2019-02-12T06:51:44.036Z,1014.23
2019-02-12T06:52:43.993Z,1014.30
2019-02-12T06:53:43.987Z,1014.22
2019-02-12T06:54:43.971Z,1014.20
2019-02-12T06:55:43.958Z,1014.25
2019-02-12T06:56:43.971Z,1014.27
2019-02-12T06:57:43.951Z,1014.24
2019-02-12T06:58:43.926Z,1014.26
2019-02-12T06:59:43.919Z,1014.24
2019-02-12T07:00:43.916Z,1014.30
2019-02-12T07:01:43.927Z,1014.26
2019-02-12T07:02:43.885Z,1014.26
2019-02-12T07:03:43.886Z,1014.24
2019-02-12T07:04:43.883Z,1014.26
2019-02-12T07:05:43.852Z,1014.21
2019-02-12T07:06:43.879Z,1014.26
2019-02-12T07:07:43.827Z,1014.30
2019-02-12T07:08:43.820Z,1014.41
2019-02-12T07:09:43.820Z,1014.44
2019-02-12T07:10:43.805Z,1014.44
2019-02-12T07:11:44.590Z,1014.52
2019-02-12T07:12:43.777Z,1014.40
2019-02-12T07:13:43.776Z,1014.53
2019-02-12T07:14:43.762Z,1014.50
2019-02-12T07:15:43.743Z,1014.53
2019-02-12T07:16:43.773Z,1014.54
2019-02-12T07:17:43.718Z,1014.46
2019-02-12T07:18:43.713Z,1014.44
2019-02-12T07:19:43.712Z,1014.45
2019-02-12T07:20:43.694Z,1014.47
2019-02-12T07:21:43.706Z,1014.48
2019-02-12T07:22:43.670Z,1014.59
2019-02-12T07:23:43.659Z,1014.63
2019-02-12T07:24:43.653Z,1014.65
2019-02-12T07:25:43.637Z,1014.66
2019-02-12T07:26:43.665Z,1014.76
2019-02-12T07:27:43.614Z,1014.73
2019-02-12T07:28:43.607Z,1014.72
2019-02-12T07:29:43.597Z,1014.75
2019-02-12T07:30:43.584Z,1014.73
2019-02-12T07:31:43.613Z,1014.65
2019-02-12T07:32:43.563Z,1014.71
2019-02-12T07:33:43.552Z,1014.80
2019-02-12T07:34:43.551Z,1014.73
2019-02-12T07:35:43.539Z,1014.73
2019-02-12T07:36:43.554Z,1014.81
2019-02-12T07:37:43.508Z,1014.83
2019-02-12T07:38:43.504Z,1014.80
2019-02-12T07:39:43.490Z,1014.88
2019-02-12T07:40:43.481Z,1014.88
2019-02-12T07:41:43.499Z,1014.91
2019-02-12T07:42:43.462Z,1014.93
2019-02-12T07:43:43.448Z,1014.93
2019-02-12T07:44:43.441Z,1014.98
2019-02-12T07:45:43.426Z,1015.02
2019-02-12T07:46:43.450Z,1014.99
2019-02-12T07:47:43.414Z,1015.06
2019-02-12T07:48:45.245Z,1015.06
2019-02-12T07:49:43.384Z,1015.07
2019-02-12T07:50:43.377Z,1015.03
2019-02-12T07:51:43.393Z,1015.00
2019-02-12T07:52:43.347Z,1015.05
2019-02-12T07:53:43.354Z,1014.97
2019-02-12T07:54:43.341Z,1015.01
2019-02-12T07:55:43.340Z,1014.99
2019-02-12T07:56:43.339Z,1015.06
2019-02-12T07:57:43.295Z,1015.04
2019-02-12T07:58:43.293Z,1015.04
2019-02-12T07:59:43.285Z,1015.02
2019-02-12T08:00:43.263Z,1015.05
2019-02-12T08:01:43.298Z,1015.02
2019-02-12T08:02:43.243Z,1015.08
2019-02-12T08:03:43.235Z,1015.03
2019-02-12T08:04:43.229Z,1015.12
2019-02-12T08:05:43.226Z,1015.07
2019-02-12T08:06:43.235Z,1015.13
2019-02-12T08:07:43.192Z,1015.08
2019-02-12T08:08:43.196Z,1015.13
2019-02-12T08:09:43.179Z,1015.15
2019-02-12T08:10:43.160Z,1015.11
2019-02-12T08:11:43.185Z,1015.20
2019-02-12T08:12:43.249Z,1015.18
2019-02-12T08:13:43.130Z,1015.18
2019-02-12T08:14:43.121Z,1015.16
2019-02-12T08:15:43.107Z,1015.25
2019-02-12T08:16:43.133Z,1015.22
2019-02-12T08:17:43.093Z,1015.29
2019-02-12T08:18:43.083Z,1015.26
2019-02-12T08:19:43.067Z,1015.33
2019-02-12T08:20:43.055Z,1015.36
2019-02-12T08:21:43.040Z,1015.28
2019-02-12T08:22:43.076Z,1015.29
2019-02-12T08:23:43.044Z,1015.35
2019-02-12T08:24:43.009Z,1015.34
2019-02-12T08:25:43.007Z,1015.36
2019-02-12T08:26:42.997Z,1015.36
2019-02-12T08:27:43.021Z,1015.40
2019-02-12T08:28:42.966Z,1015.38
2019-02-12T08:29:42.964Z,1015.39
2019-02-12T08:30:42.949Z,1015.38
2019-02-12T08:31:42.932Z,1015.34
2019-02-12T08:32:42.945Z,1015.44
2019-02-12T08:33:42.917Z,1015.44
2019-02-12T08:34:42.908Z,1015.46
2019-02-12T08:35:42.895Z,1015.38
2019-02-12T08:36:42.888Z,1015.47
2019-02-12T08:37:42.895Z,1015.52
2019-02-12T08:38:42.853Z,1015.45
2019-02-12T08:39:42.846Z,1015.56
2019-02-12T08:40:42.836Z,1015.38
2019-02-12T08:41:42.826Z,1015.51
2019-02-12T08:42:42.848Z,1015.47
2019-02-12T08:43:42.850Z,1015.41
2019-02-12T08:44:42.795Z,1015.35
2019-02-12T08:45:42.808Z,1015.48
2019-02-12T08:46:42.784Z,1015.47
2019-02-12T08:47:42.814Z,1015.47
2019-02-12T08:48:42.754Z,1015.30
2019-02-12T08:49:42.750Z,1015.47
2019-02-12T08:50:42.727Z,1015.48
2019-02-12T08:51:42.714Z,1015.54
2019-02-12T08:52:42.739Z,1015.45
2019-02-12T08:53:50.286Z,1015.41
2019-02-12T08:54:43.690Z,1015.54
2019-02-12T08:55:54.677Z,1015.66
2019-02-12T08:56:42.650Z,1015.58
2019-02-12T08:57:42.664Z,1015.49
2019-02-12T08:58:42.630Z,1015.62
2019-02-12T08:59:42.616Z,1015.65
2019-02-12T09:00:42.607Z,1015.65
2019-02-12T09:01:42.639Z,1015.58
2019-02-12T09:02:42.607Z,1015.63
2019-02-12T09:03:42.578Z,1015.62
2019-02-12T09:04:42.603Z,1015.66
2019-02-12T09:05:42.558Z,1015.66
2019-02-12T09:06:42.547Z,1015.65
2019-02-12T09:07:42.559Z,1015.69
2019-02-12T09:08:42.523Z,1015.70
2019-02-12T09:09:42.506Z,1015.72
2019-02-12T09:10:42.495Z,1015.65
2019-02-12T09:11:42.485Z,1015.75
2019-02-12T09:12:42.510Z,1015.81
2019-02-12T09:13:42.471Z,1015.84
2019-02-12T09:14:42.461Z,1015.79
2019-02-12T09:15:42.446Z,1015.74
2019-02-12T09:16:42.443Z,1015.77
2019-02-12T09:17:42.447Z,1015.80
2019-02-12T09:18:42.412Z,1015.78
2019-02-12T09:19:42.406Z,1015.95
2019-02-12T09:20:42.413Z,1015.78
2019-02-12T09:21:42.384Z,1015.95
2019-02-12T09:22:42.407Z,1015.91
2019-02-12T09:23:42.362Z,1015.88
2019-02-12T09:24:42.350Z,1015.87
2019-02-12T09:25:42.344Z,1015.95
2019-02-12T09:26:42.330Z,1015.85
2019-02-12T09:27:42.316Z,1016.00
2019-02-12T09:28:42.337Z,1015.97
2019-02-12T09:29:42.294Z,1015.88
2019-02-12T09:30:42.290Z,1015.89
2019-02-12T09:31:42.273Z,1015.94
2019-02-12T09:32:42.267Z,1015.96
2019-02-12T09:33:42.279Z,1015.98
2019-02-12T09:34:42.240Z,1015.87
2019-02-12T09:35:42.236Z,1016.00
2019-02-12T09:36:42.221Z,1016.00
2019-02-12T09:37:42.259Z,1016.06
2019-02-12T09:38:42.229Z,1016.04
2019-02-12T09:39:42.188Z,1016.01
2019-02-12T09:40:42.175Z,1015.96
2019-02-12T09:41:42.167Z,1016.01
2019-02-12T09:42:42.155Z,1016.02
2019-02-12T09:43:42.164Z,1015.88
2019-02-12T09:44:42.135Z,1015.97
2019-02-12T09:45:42.120Z,1015.95
2019-02-12T09:46:42.113Z,1015.98
2019-02-12T09:47:42.105Z,1015.89
2019-02-12T09:48:42.134Z,1015.90
2019-02-12T09:49:42.080Z,1015.96
2019-02-12T09:50:42.069Z,1015.97
2019-02-12T09:51:42.056Z,1015.97
2019-02-12T09:52:42.054Z,1015.83
2019-02-12T09:53:42.058Z,1015.93
2019-02-12T09:54:42.027Z,1015.90
2019-02-12T09:55:42.011Z,1015.99
2019-02-12T09:56:42.001Z,1015.77
2019-02-12T09:57:41.992Z,1015.87
2019-02-12T09:58:42.005Z,1015.95
2019-02-12T09:59:41.967Z,1015.88
2019-02-12T10:00:42.017Z,1015.97
2019-02-12T10:01:41.947Z,1015.91
2019-02-12T10:02:41.937Z,1015.95
2019-02-12T10:03:41.949Z,1016.01
2019-02-12T10:04:41.922Z,1016.01
2019-02-12T10:05:41.904Z,1015.97
2019-02-12T10:06:41.901Z,1016.01
2019-02-12T10:07:41.992Z,1016.02
2019-02-12T10:08:41.912Z,1016.04
2019-02-12T10:09:41.860Z,1016.08
2019-02-12T10:10:41.849Z,1016.02
2019-02-12T10:11:41.845Z,1016.01
2019-02-12T10:12:41.835Z,1016.01
2019-02-12T10:13:41.845Z,1016.05
2019-02-12T10:14:41.804Z,1016.05
2019-02-12T10:15:41.793Z,1016.16
2019-02-12T10:16:41.780Z,1016.08
2019-02-12T10:17:41.773Z,1016.15
2019-02-12T10:18:41.788Z,1016.10
2019-02-12T10:19:41.756Z,1016.16
2019-02-12T10:20:41.744Z,1016.20
2019-02-12T10:21:41.728Z,1016.22
2019-02-12T10:22:41.721Z,1016.27
2019-02-12T10:23:41.738Z,1016.14
2019-02-12T10:24:41.702Z,1016.14
2019-02-12T10:25:41.705Z,1016.28
2019-02-12T10:26:41.676Z,1016.18
2019-02-12T10:27:41.665Z,1016.21
2019-02-12T10:28:48.582Z,1016.24
2019-02-12T10:29:42.645Z,1016.25
2019-02-12T10:30:41.650Z,1016.19
2019-02-12T10:31:41.634Z,1016.18
2019-02-12T10:32:41.716Z,1016.23
2019-02-12T10:33:41.732Z,1016.26
2019-02-12T10:34:41.730Z,1016.28
2019-02-12T10:35:41.591Z,1016.32
2019-02-12T10:36:41.641Z,1016.27
2019-02-12T10:37:41.563Z,1016.24
2019-02-12T10:38:42.135Z,1016.20
2019-02-12T10:39:41.558Z,1016.20
2019-02-12T10:40:41.538Z,1016.18
2019-02-12T10:41:41.532Z,1016.25
2019-02-12T10:42:41.516Z,1016.33
2019-02-12T10:43:41.530Z,1016.26
2019-02-12T10:44:41.494Z,1016.28
2019-02-12T10:45:41.479Z,1016.27
2019-02-12T10:46:41.473Z,1016.22
2019-02-12T10:47:41.462Z,1016.27
2019-02-12T10:48:41.474Z,1016.23
2019-02-12T10:49:41.435Z,1016.26
2019-02-12T10:50:41.425Z,1016.28
2019-02-12T10:51:41.417Z,1016.28
2019-02-12T10:52:41.408Z,1016.28
2019-02-12T10:53:41.417Z,1016.28
2019-02-12T10:54:41.385Z,1016.34
2019-02-12T10:55:41.383Z,1016.26
2019-02-12T10:56:41.364Z,1016.38
2019-02-12T10:57:41.349Z,1016.35
2019-02-12T10:58:41.362Z,1016.32
2019-02-12T10:59:41.329Z,1016.30
2019-02-12T11:00:41.319Z,1016.38
2019-02-12T11:01:41.310Z,1016.35
2019-02-12T11:02:41.298Z,1016.35
2019-02-12T11:03:41.314Z,1016.28
2019-02-12T11:04:41.274Z,1016.33
2019-02-12T11:05:41.265Z,1016.34
2019-02-12T11:06:41.259Z,1016.33
2019-02-12T11:07:41.243Z,1016.32
2019-02-12T11:08:41.277Z,1016.35
2019-02-12T11:09:41.227Z,1016.36
2019-02-12T11:10:41.214Z,1016.33
2019-02-12T11:11:41.201Z,1016.37
2019-02-12T11:12:41.185Z,1016.39
2019-02-12T11:13:41.173Z,1016.37
2019-02-12T11:14:41.205Z,1016.31
2019-02-12T11:15:41.188Z,1016.33
2019-02-12T11:16:41.147Z,1016.23
2019-02-12T11:17:41.129Z,1016.21
2019-02-12T11:18:41.121Z,1016.18
2019-02-12T11:19:41.146Z,1016.08
2019-02-12T11:20:41.106Z,1016.23
2019-02-12T11:21:41.092Z,1016.25
2019-02-12T11:22:41.091Z,1016.28
2019-02-12T11:23:41.073Z,1016.29
2019-02-12T11:24:41.099Z,1016.25
2019-02-12T11:25:41.056Z,1016.25
2019-02-12T11:26:41.043Z,1016.21
2019-02-12T11:27:41.033Z,1016.20
2019-02-12T11:28:41.023Z,1016.18
2019-02-12T11:29:41.029Z,1016.24
2019-02-12T11:30:41.006Z,1016.27
2019-02-12T11:31:40.987Z,1016.23
2019-02-12T11:32:40.977Z,1016.25
2019-02-12T11:33:40.969Z,1016.32
2019-02-12T11:34:40.982Z,1016.32
2019-02-12T11:35:40.954Z,1016.32
2019-02-12T11:36:40.936Z,1016.28
2019-02-12T11:37:40.923Z,1016.34
2019-02-12T11:38:40.909Z,1016.31
2019-02-12T11:39:40.924Z,1016.20
2019-02-12T11:40:40.892Z,1016.21
2019-02-12T11:41:40.884Z,1016.38
2019-02-12T11:42:40.871Z,1016.26
2019-02-12T11:43:40.859Z,1016.22
2019-02-12T11:44:40.879Z,1016.25
2019-02-12T11:45:40.839Z,1016.21
2019-02-12T11:46:40.830Z,1016.20
2019-02-12T11:47:40.818Z,1016.20
2019-02-12T11:48:40.810Z,1016.17
2019-02-12T11:49:40.828Z,1016.21
2019-02-12T11:50:40.784Z,1016.21
2019-02-12T11:51:40.772Z,1016.23
2019-02-12T11:52:40.766Z,1016.25
2019-02-12T11:53:40.753Z,1016.13
2019-02-12T11:54:43.817Z,1016.09
2019-02-12T11:55:41.170Z,1016.10
2019-02-12T11:56:40.723Z,1016.19
2019-02-12T11:57:40.711Z,1016.05
2019-02-12T11:58:40.698Z,1016.06
2019-02-12T11:59:40.718Z,1016.08
2019-02-12T12:00:40.679Z,1016.11
2019-02-12T12:01:40.673Z,1016.10
2019-02-12T12:02:42.025Z,1016.10
2019-02-12T12:03:40.654Z,1016.15
2019-02-12T12:04:40.660Z,1016.18
2019-02-12T12:05:40.626Z,1016.16